Time;durP1;ratioP1;P1;durP2;ratioP2;P2;SDS_P1;SDS_P2;PMS_P1;PMS_P2;Temp;Humidity;BMP_temperature;BMP_pressure;BME280_temperature;BME280_humidity;BME280_pressure;Samples;Min_cycle;Max_cycle;Signal;HPM_P1;HPM_P2
2019/10/05 00:02:01;;;;;;;8.6;2.7;;;;;;;;;;;;;
2019/10/05 00:04:24;;;;;;;8.3;2.3;;;;;;;;;;;;;
2019/10/05 00:06:49;;;;;;;7;2.3;;;;;;;;;;;;;
2019/10/05 00:09:14;;;;;;;10.8;2.9;;;;;;;;;;;;;
2019/10/05 00:11:39;;;;;;;8.2;2.5;;;;;;;;;;;;;
2019/10/05 00:14:04;;;;;;;10.4;2.6;;;;;;;;;;;;;
2019/10/05 00:18:59;;;;;;;9.3;2.8;;;;;;;;;;;;;
2019/10/05 00:21:20;;;;;;;8.2;2.2;;;;;;;;;;;;;
2019/10/05 00:23:45;;;;;;;9.9;2.8;;;;;;;;;;;;;
2019/10/05 00:26:10;;;;;;;8.3;2.4;;;;;;;;;;;;;
2019/10/05 00:28:35;;;;;;;10.6;2.7;;;;;;;;;;;;;
2019/10/05 00:31:00;;;;;;;8.6;2.9;;;;;;;;;;;;;
2019/10/05 00:33:25;;;;;;;8.8;2.6;;;;;;;;;;;;;
2019/10/05 00:35:50;;;;;;;7.1;2.4;;;;;;;;;;;;;
2019/10/05 00:38:15;;;;;;;8.6;2.5;;;;;;;;;;;;;
2019/10/05 00:40:40;;;;;;;7.7;2.4;;;;;;;;;;;;;
2019/10/05 00:43:05;;;;;;;8.9;2.5;;;;;;;;;;;;;
2019/10/05 00:45:30;;;;;;;8.4;2.8;;;;;;;;;;;;;
2019/10/05 00:47:55;;;;;;;10.6;2.8;;;;;;;;;;;;;
2019/10/05 00:50:20;;;;;;;7.9;2.4;;;;;;;;;;;;;
2019/10/05 00:52:45;;;;;;;8.7;2.7;;;;;;;;;;;;;
2019/10/05 00:55:10;;;;;;;8.7;2.7;;;;;;;;;;;;;
2019/10/05 00:57:35;;;;;;;8.4;2.5;;;;;;;;;;;;;
2019/10/05 01:00:00;;;;;;;10.2;3;;;;;;;;;;;;;
2019/10/05 01:02:25;;;;;;;10;2.7;;;;;;;;;;;;;
2019/10/05 01:04:51;;;;;;;7;2.1;;;;;;;;;;;;;
2019/10/05 01:07:16;;;;;;;7.7;2.4;;;;;;;;;;;;;
2019/10/05 01:09:41;;;;;;;8.3;2.5;;;;;;;;;;;;;
2019/10/05 01:12:06;;;;;;;10;2.9;;;;;;;;;;;;;
2019/10/05 01:14:31;;;;;;;8.2;2.3;;;;;;;;;;;;;
2019/10/05 01:16:56;;;;;;;9.5;2.5;;;;;;;;;;;;;
2019/10/05 01:19:21;;;;;;;8.7;2.4;;;;;;;;;;;;;
2019/10/05 01:21:46;;;;;;;9;2.5;;;;;;;;;;;;;
2019/10/05 01:24:11;;;;;;;7.8;2.2;;;;;;;;;;;;;
2019/10/05 01:26:37;;;;;;;8.8;2.5;;;;;;;;;;;;;
2019/10/05 01:29:02;;;;;;;9.2;2.5;;;;;;;;;;;;;
2019/10/05 01:31:27;;;;;;;8.5;2.3;;;;;;;;;;;;;
2019/10/05 01:33:52;;;;;;;6;1.9;;;;;;;;;;;;;
2019/10/05 01:36:17;;;;;;;6.7;2.3;;;;;;;;;;;;;
2019/10/05 01:38:42;;;;;;;7.6;2.4;;;;;;;;;;;;;
2019/10/05 01:41:07;;;;;;;8.8;2.3;;;;;;;;;;;;;
2019/10/05 01:43:32;;;;;;;9.8;2.6;;;;;;;;;;;;;
2019/10/05 01:45:57;;;;;;;7.5;2.3;;;;;;;;;;;;;
2019/10/05 01:48:22;;;;;;;7.7;2.2;;;;;;;;;;;;;
2019/10/05 01:50:48;;;;;;;8.2;2.2;;;;;;;;;;;;;
2019/10/05 01:53:13;;;;;;;7;2.5;;;;;;;;;;;;;
2019/10/05 01:55:38;;;;;;;8.8;2.3;;;;;;;;;;;;;
2019/10/05 01:58:03;;;;;;;6.3;2;;;;;;;;;;;;;
2019/10/05 02:00:28;;;;;;;8.6;2.1;;;;;;;;;;;;;
2019/10/05 02:02:53;;;;;;;7.1;1.9;;;;;;;;;;;;;
2019/10/05 02:05:18;;;;;;;7.8;2;;;;;;;;;;;;;
2019/10/05 02:07:43;;;;;;;8.1;2;;;;;;;;;;;;;
2019/10/05 02:10:08;;;;;;;8.2;2.3;;;;;;;;;;;;;
2019/10/05 02:12:33;;;;;;;7.7;2.3;;;;;;;;;;;;;
2019/10/05 02:14:59;;;;;;;8.6;2.2;;;;;;;;;;;;;
2019/10/05 02:17:24;;;;;;;7.6;2.2;;;;;;;;;;;;;
2019/10/05 02:19:49;;;;;;;8.9;2.3;;;;;;;;;;;;;
2019/10/05 02:22:14;;;;;;;7.1;2.4;;;;;;;;;;;;;
2019/10/05 02:24:39;;;;;;;8.1;2.2;;;;;;;;;;;;;
2019/10/05 02:27:04;;;;;;;7.1;2;;;;;;;;;;;;;
2019/10/05 02:29:29;;;;;;;6.6;2.1;;;;;;;;;;;;;
2019/10/05 02:31:54;;;;;;;6.4;2;;;;;;;;;;;;;
2019/10/05 02:34:19;;;;;;;8.1;2.3;;;;;;;;;;;;;
2019/10/05 02:36:44;;;;;;;7.5;2;;;;;;;;;;;;;
2019/10/05 02:39:09;;;;;;;8.8;2.4;;;;;;;;;;;;;
2019/10/05 02:41:34;;;;;;;7.7;1.9;;;;;;;;;;;;;
2019/10/05 02:44:00;;;;;;;7.5;2.1;;;;;;;;;;;;;
2019/10/05 02:46:42;;;;;;;5.8;1.9;;;;;;;;;;;;;
2019/10/05 02:48:55;;;;;;;9.5;2.2;;;;;;;;;;;;;
2019/10/05 02:51:20;;;;;;;7.5;2.1;;;;;;;;;;;;;
2019/10/05 02:53:40;;;;;;;7.2;2;;;;;;;;;;;;;
2019/10/05 02:56:05;;;;;;;8.2;2.6;;;;;;;;;;;;;
2019/10/05 02:58:30;;;;;;;6.6;2;;;;;;;;;;;;;
2019/10/05 03:00:55;;;;;;;7.5;2.2;;;;;;;;;;;;;
2019/10/05 03:03:20;;;;;;;9.3;2.3;;;;;;;;;;;;;
2019/10/05 03:05:45;;;;;;;8;2.1;;;;;;;;;;;;;
2019/10/05 03:08:10;;;;;;;9.6;2.5;;;;;;;;;;;;;
2019/10/05 03:10:35;;;;;;;7.7;2;;;;;;;;;;;;;
2019/10/05 03:13:01;;;;;;;8;2.1;;;;;;;;;;;;;
2019/10/05 03:15:26;;;;;;;6.9;2;;;;;;;;;;;;;
2019/10/05 03:17:51;;;;;;;7;2.1;;;;;;;;;;;;;
2019/10/05 03:20:16;;;;;;;6.8;2;;;;;;;;;;;;;
2019/10/05 03:22:41;;;;;;;7.6;2.4;;;;;;;;;;;;;
2019/10/05 03:25:06;;;;;;;8;2.4;;;;;;;;;;;;;
2019/10/05 03:27:33;;;;;;;6.7;2.1;;;;;;;;;;;;;
2019/10/05 03:29:56;;;;;;;7.9;2.4;;;;;;;;;;;;;
2019/10/05 03:32:21;;;;;;;10.2;2.4;;;;;;;;;;;;;
2019/10/05 03:34:47;;;;;;;8.3;2.1;;;;;;;;;;;;;
2019/10/05 03:37:12;;;;;;;7.3;2;;;;;;;;;;;;;
2019/10/05 03:39:37;;;;;;;8.4;2.4;;;;;;;;;;;;;
2019/10/05 03:42:02;;;;;;;8.4;2.1;;;;;;;;;;;;;
2019/10/05 03:44:27;;;;;;;7.5;2.4;;;;;;;;;;;;;
2019/10/05 03:46:52;;;;;;;8.7;2.2;;;;;;;;;;;;;
2019/10/05 03:49:17;;;;;;;7.6;2.2;;;;;;;;;;;;;
2019/10/05 03:51:42;;;;;;;8.5;2.5;;;;;;;;;;;;;
2019/10/05 03:54:08;;;;;;;7.9;2.4;;;;;;;;;;;;;
2019/10/05 03:56:33;;;;;;;8.6;2.3;;;;;;;;;;;;;
2019/10/05 03:58:58;;;;;;;8.6;2.4;;;;;;;;;;;;;
2019/10/05 04:02:28;;;;;;;9.1;2.7;;;;;;;11.17;89.14648;952.467;;;;
2019/10/05 04:04:54;;;;;;;6.8;2.2;;;;;;;11.15;89.55957;952.4601;;;;
2019/10/05 04:07:19;;;;;;;8.2;2.6;;;;;;;11.18;89.05664;952.4603;;;;
2019/10/05 04:09:44;;;;;;;7.2;2.4;;;;;;;11.13;89.47363;952.5158;;;;
2019/10/05 04:12:42;;;;;;;8.6;2.3;;;;;;;11.12;89.2627;952.522;;;;
2019/10/05 04:14:44;;;;;;;7.1;2;;;;;;;11.13;89.23145;952.4677;;;;
2019/10/05 04:17:05;;;;;;;5.7;1.9;;;;;;;11.13;90.70508;952.5195;;;;
2019/10/05 04:19:24;;;;;;;8.5;2.5;;;;;;;11.17;90.40137;952.467;;;;
2019/10/05 04:21:49;;;;;;;7.6;2.4;;;;;;;11.14;91.20215;952.5157;;;;
2019/10/05 04:24:14;;;;;;;8.2;2.3;;;;;;;11.07;91.01563;952.5641;;;;
2019/10/05 04:26:39;;;;;;;8.9;2.4;;;;;;;11.15;91.05371;952.5931;;;;
2019/10/05 04:29:04;;;;;;;7.1;2.2;;;;;;;11.17;90.66602;952.5851;;;;
2019/10/05 04:32:16;;;;;;;8.3;2.1;;;;;;;11.13;90.95801;952.5408;;;;
2019/10/05 04:33:55;;;;;;;8;2.2;;;;;;;11.17;91.48633;952.5811;;;;
2019/10/05 04:36:20;;;;;;;8.5;2.1;;;;;;;11.13;90.21094;952.6454;;;;
2019/10/05 04:38:45;;;;;;;8;2.3;;;;;;;11.06;91.09473;952.6733;;;;
2019/10/05 04:41:10;;;;;;;8.9;2.4;;;;;;;11.05;91.53027;952.6588;;;;
2019/10/05 04:43:35;;;;;;;9.1;2.2;;;;;;;11.09;92.12598;952.6531;;;;
2019/10/05 04:46:00;;;;;;;7.3;2.3;;;;;;;11.03;92.28711;952.7147;;;;
2019/10/05 04:48:25;;;;;;;7.8;2.5;;;;;;;11.05;93.32813;952.7051;;;;
2019/10/05 04:50:50;;;;;;;9.9;2.5;;;;;;;11.05;93.79883;952.7974;;;;
2019/10/05 04:53:15;;;;;;;9.3;2.4;;;;;;;10.96;95.11523;952.7308;;;;
2019/10/05 04:55:40;;;;;;;10.4;2.5;;;;;;;10.77;96.63965;952.6872;;;;
2019/10/05 04:58:05;;;;;;;10.2;3;;;;;;;10.74;96.95605;952.7049;;;;
2019/10/05 05:00:31;;;;;;;8.2;2.5;;;;;;;10.82;98.17188;952.7672;;;;
2019/10/05 05:02:56;;;;;;;10.5;2.6;;;;;;;10.83;99.1416;952.8326;;;;
2019/10/05 05:05:21;;;;;;;11.3;2.8;;;;;;;10.75;99.84863;952.8582;;;;
2019/10/05 05:07:46;;;;;;;11.7;2.8;;;;;;;10.76;100;952.8239;;;;
2019/10/05 05:10:12;;;;;;;10.6;2.9;;;;;;;10.65;100;952.855;;;;
2019/10/05 05:12:37;;;;;;;9.3;2.3;;;;;;;10.66;100;952.8159;;;;
2019/10/05 05:15:02;;;;;;;10.6;2.7;;;;;;;10.71;100;952.8577;;;;
2019/10/05 05:17:28;;;;;;;11.4;2.5;;;;;;;10.64;100;952.8694;;;;
2019/10/05 05:19:53;;;;;;;10;2.4;;;;;;;10.61;100;952.9074;;;;
2019/10/05 05:22:19;;;;;;;9.7;2.7;;;;;;;10.69;100;952.7885;;;;
2019/10/05 05:24:44;;;;;;;10.1;2.6;;;;;;;10.66;100;952.8525;;;;
2019/10/05 05:27:09;;;;;;;7.8;2.6;;;;;;;10.65;100;952.8281;;;;
2019/10/05 05:29:34;;;;;;;8.8;2.6;;;;;;;10.68;100;952.7808;;;;
2019/10/05 05:32:00;;;;;;;8.3;2.3;;;;;;;10.59;100;952.8708;;;;
2019/10/05 05:36:56;;;;;;;10.9;2.6;;;;;;;10.67;100;952.855;;;;
2019/10/05 05:39:18;;;;;;;7.4;2.7;;;;;;;10.65;100;952.8828;;;;
2019/10/05 05:41:40;;;;;;;9.3;2.7;;;;;;;10.67;100;952.8948;;;;
2019/10/05 05:44:05;;;;;;;10;2.8;;;;;;;10.59;100;952.8839;;;;
2019/10/05 05:46:30;;;;;;;9.9;3;;;;;;;10.65;100;952.8631;;;;
2019/10/05 05:48:55;;;;;;;10.9;3.2;;;;;;;10.65;100;952.9191;;;;
2019/10/05 05:51:20;;;;;;;9.4;3;;;;;;;10.64;100;952.8499;;;;
2019/10/05 05:53:46;;;;;;;8.7;2.9;;;;;;;10.67;100;952.8484;;;;
2019/10/05 05:56:11;;;;;;;8.9;2.8;;;;;;;10.61;100;952.8325;;;;
2019/10/05 05:58:36;;;;;;;11.2;3.3;;;;;;;10.6;100;952.9091;;;;
2019/10/05 06:01:02;;;;;;;8.8;2.8;;;;;;;10.63;100;952.9289;;;;
2019/10/05 06:03:27;;;;;;;12;3.4;;;;;;;10.66;100;952.9389;;;;
2019/10/05 06:05:52;;;;;;;11.2;3.1;;;;;;;10.59;100;952.9172;;;;
2019/10/05 06:08:17;;;;;;;12.9;4.8;;;;;;;10.59;100;952.9255;;;;
2019/10/05 06:10:42;;;;;;;9.7;3.1;;;;;;;10.58;100;953.0074;;;;
2019/10/05 06:13:08;;;;;;;10.6;3.3;;;;;;;10.61;100;952.9498;;;;
2019/10/05 06:15:32;;;;;;;12.6;3.5;;;;;;;10.58;100;952.8779;;;;
2019/10/05 06:17:58;;;;;;;10.8;3.5;;;;;;;10.58;100;952.9545;;;;
2019/10/05 06:20:23;;;;;;;10.6;3.3;;;;;;;10.68;100;953.0524;;;;
2019/10/05 06:22:48;;;;;;;8.9;3;;;;;;;10.66;100;953.0016;;;;
2019/10/05 06:25:18;;;;;;;9.2;3;;;;;;;10.68;100;952.9571;;;;
2019/10/05 06:27:43;;;;;;;9.7;3.1;;;;;;;10.62;100;952.9827;;;;
2019/10/05 06:30:08;;;;;;;8.5;2.8;;;;;;;10.7;100;953.0002;;;;
2019/10/05 06:32:33;;;;;;;9.1;3;;;;;;;10.73;100;953.0428;;;;
2019/10/05 06:34:58;;;;;;;10.9;3.4;;;;;;;10.8;100;952.9878;;;;
2019/10/05 06:37:23;;;;;;;8.4;2.8;;;;;;;10.76;100;953.0048;;;;
2019/10/05 06:39:49;;;;;;;10.9;3.1;;;;;;;10.73;100;952.9988;;;;
2019/10/05 06:42:14;;;;;;;11;3;;;;;;;10.76;100;952.9892;;;;
2019/10/05 06:44:39;;;;;;;9.4;2.8;;;;;;;10.82;100;953.0485;;;;
2019/10/05 06:47:04;;;;;;;9.2;2.8;;;;;;;10.88;100;953.1255;;;;
2019/10/05 06:49:29;;;;;;;10.1;3.3;;;;;;;10.91;100;953.1044;;;;
2019/10/05 06:51:54;;;;;;;9.2;2.4;;;;;;;10.93;100;953.1887;;;;
2019/10/05 06:54:19;;;;;;;13.6;4.7;;;;;;;10.9;100;953.1362;;;;
2019/10/05 06:56:44;;;;;;;8.6;2.9;;;;;;;10.91;100;953.2153;;;;
2019/10/05 06:59:09;;;;;;;12.6;3.3;;;;;;;10.81;100;953.165;;;;
2019/10/05 07:01:35;;;;;;;12.3;3.3;;;;;;;10.85;100;953.2019;;;;
2019/10/05 07:04:00;;;;;;;13.4;3.3;;;;;;;10.82;100;953.1625;;;;
2019/10/05 07:06:25;;;;;;;9.1;3.1;;;;;;;10.78;100;953.1713;;;;
2019/10/05 07:08:50;;;;;;;9.9;3.1;;;;;;;10.73;100;953.1561;;;;
2019/10/05 07:11:15;;;;;;;11.9;3.3;;;;;;;10.8;100;953.1666;;;;
2019/10/05 07:13:40;;;;;;;12.1;3.3;;;;;;;10.77;100;953.173;;;;
2019/10/05 07:16:05;;;;;;;13.2;3.4;;;;;;;10.83;100;953.2472;;;;
2019/10/05 07:18:30;;;;;;;12;3.8;;;;;;;10.88;100;953.2599;;;;
2019/10/05 07:20:55;;;;;;;11.2;3.1;;;;;;;10.92;100;953.3721;;;;
2019/10/05 07:23:20;;;;;;;10.8;3.6;;;;;;;10.94;100;953.2506;;;;
2019/10/05 07:25:46;;;;;;;12.6;3.4;;;;;;;10.95;100;953.2571;;;;
2019/10/05 07:28:11;;;;;;;10.4;3.4;;;;;;;10.91;100;953.3873;;;;
2019/10/05 07:30:36;;;;;;;9.4;3;;;;;;;10.97;100;953.378;;;;
2019/10/05 07:33:01;;;;;;;12.6;3.5;;;;;;;10.93;100;953.3933;;;;
2019/10/05 07:35:26;;;;;;;13.8;4.2;;;;;;;10.88;100;953.3984;;;;
2019/10/05 07:37:51;;;;;;;11.5;3.6;;;;;;;10.88;100;953.4279;;;;
2019/10/05 07:40:17;;;;;;;14.2;3.7;;;;;;;10.98;100;953.556;;;;
2019/10/05 07:42:42;;;;;;;11;3.2;;;;;;;11.06;100;953.5686;;;;
2019/10/05 07:45:07;;;;;;;10.7;3.6;;;;;;;11.03;100;953.5904;;;;
2019/10/05 07:47:33;;;;;;;10.5;3.3;;;;;;;10.99;100;953.644;;;;
2019/10/05 07:49:58;;;;;;;10.4;3;;;;;;;10.97;100;953.6478;;;;
2019/10/05 07:52:23;;;;;;;10.3;3.1;;;;;;;11.03;100;953.7494;;;;
2019/10/05 07:54:48;;;;;;;11.5;3.7;;;;;;;11.02;100;953.72;;;;
2019/10/05 07:57:14;;;;;;;10.9;3.2;;;;;;;11.04;100;953.7553;;;;
2019/10/05 07:59:39;;;;;;;9.7;3.2;;;;;;;11.04;100;953.8736;;;;
2019/10/05 08:02:04;;;;;;;9.3;2.9;;;;;;;11.16;100;953.855;;;;
2019/10/05 08:04:30;;;;;;;8.8;2.9;;;;;;;11.18;100;953.943;;;;
2019/10/05 08:06:55;;;;;;;10.9;3.2;;;;;;;11.2;100;953.9041;;;;
2019/10/05 08:09:21;;;;;;;12.4;3.8;;;;;;;11.2;100;954.015;;;;
2019/10/05 08:11:46;;;;;;;10.4;3.3;;;;;;;11.21;100;954.1144;;;;
2019/10/05 08:14:11;;;;;;;8;3;;;;;;;11.23;100;954.1122;;;;
2019/10/05 08:16:36;;;;;;;10.3;3.2;;;;;;;11.28;100;954.1136;;;;
2019/10/05 08:19:02;;;;;;;7.1;2.5;;;;;;;11.31;100;954.2149;;;;
2019/10/05 08:21:27;;;;;;;6.8;2.2;;;;;;;11.39;100;954.2919;;;;
2019/10/05 08:23:53;;;;;;;7.6;2.8;;;;;;;11.36;100;954.3839;;;;
2019/10/05 08:26:18;;;;;;;7.9;2.5;;;;;;;11.39;100;954.3996;;;;
2019/10/05 08:28:43;;;;;;;7;2.3;;;;;;;11.31;100;954.4841;;;;
2019/10/05 08:31:09;;;;;;;9.6;2.8;;;;;;;11.27;100;954.4933;;;;
2019/10/05 08:33:34;;;;;;;6.4;2.5;;;;;;;11.28;100;954.51;;;;
2019/10/05 08:35:59;;;;;;;6.8;2.1;;;;;;;11.26;100;954.5457;;;;
2019/10/05 08:38:24;;;;;;;5.5;1.7;;;;;;;11.23;100;954.5673;;;;
2019/10/05 08:40:49;;;;;;;4.7;1.6;;;;;;;11.19;100;954.5834;;;;
2019/10/05 08:43:14;;;;;;;2.9;1.1;;;;;;;11.18;100;954.6036;;;;
2019/10/05 08:45:39;;;;;;;3.4;0.9;;;;;;;11.15;100;954.6204;;;;
2019/10/05 08:48:04;;;;;;;3.8;1.2;;;;;;;11.12;100;954.6316;;;;
2019/10/05 08:50:30;;;;;;;2.9;0.9;;;;;;;11.21;100;954.5785;;;;
2019/10/05 08:52:55;;;;;;;2.9;1.2;;;;;;;11.3;100;954.6183;;;;
2019/10/05 08:55:21;;;;;;;4.5;1;;;;;;;11.33;100;954.6064;;;;
2019/10/05 08:57:46;;;;;;;2.2;1;;;;;;;11.37;100;954.6351;;;;
2019/10/05 09:00:12;;;;;;;1.8;0.8;;;;;;;11.36;100;954.6506;;;;
2019/10/05 09:02:37;;;;;;;2;0.8;;;;;;;11.31;100;954.7231;;;;
2019/10/05 09:05:02;;;;;;;2.4;0.8;;;;;;;11.47;100;954.7552;;;;
2019/10/05 09:07:27;;;;;;;1.7;0.7;;;;;;;11.52;100;954.6905;;;;
2019/10/05 09:09:52;;;;;;;2.2;0.9;;;;;;;11.59;100;954.6664;;;;
2019/10/05 09:12:17;;;;;;;1.9;0.9;;;;;;;11.57;100;954.7249;;;;
2019/10/05 09:14:42;;;;;;;1.7;1;;;;;;;11.66;100;954.6822;;;;
2019/10/05 09:17:37;;;;;;;2.2;1;;;;;;;11.64;100;954.6856;;;;
2019/10/05 09:20:02;;;;;;;2.5;1.2;;;;;;;11.85;100;954.7386;;;;
2019/10/05 09:22:27;;;;;;;2.4;1;;;;;;;11.94;100;954.8233;;;;
2019/10/05 09:24:52;;;;;;;1.8;1.1;;;;;;;11.94;100;954.829;;;;
2019/10/05 09:27:17;;;;;;;2.1;1;;;;;;;12.02;99.58789;954.8693;;;;
2019/10/05 09:29:42;;;;;;;1.7;1;;;;;;;12.04;100;954.9895;;;;
2019/10/05 09:32:07;;;;;;;2.5;1.1;;;;;;;12.02;100;954.9241;;;;
2019/10/05 09:34:32;;;;;;;2;1.3;;;;;;;12.02;100;955.0081;;;;
2019/10/05 09:36:57;;;;;;;3.3;1.6;;;;;;;11.95;100;955.118;;;;
2019/10/05 09:39:22;;;;;;;1.6;0.7;;;;;;;11.53;99.23242;955.158;;;;
2019/10/05 09:41:48;;;;;;;1.3;0.7;;;;;;;11.13;97.52637;955.3116;;;;
2019/10/05 09:44:13;;;;;;;2.4;1;;;;;;;11.01;100;955.4094;;;;
2019/10/05 09:46:38;;;;;;;1.4;1.1;;;;;;;10.87;100;955.4396;;;;
2019/10/05 09:49:03;;;;;;;2.5;1.4;;;;;;;10.65;100;955.5203;;;;
2019/10/05 09:51:28;;;;;;;2.8;1.2;;;;;;;10.5;100;955.6479;;;;
2019/10/05 09:53:53;;;;;;;2.5;1.6;;;;;;;10.32;100;955.6025;;;;
2019/10/05 09:56:18;;;;;;;2.4;1.6;;;;;;;10.33;100;955.657;;;;
2019/10/05 09:58:43;;;;;;;3.9;2.3;;;;;;;10.34;100;955.6913;;;;
2019/10/05 10:01:08;;;;;;;2.9;2;;;;;;;10.45;100;955.7255;;;;
2019/10/05 10:03:33;;;;;;;2.7;2.2;;;;;;;10.47;100;955.7136;;;;
2019/10/05 10:05:58;;;;;;;2.4;2.2;;;;;;;10.23;100;955.8233;;;;
2019/10/05 10:08:23;;;;;;;2.9;2.6;;;;;;;10.4;100;955.9055;;;;
2019/10/05 10:10:48;;;;;;;3.2;2.7;;;;;;;10.33;100;955.8256;;;;
2019/10/05 10:13:14;;;;;;;3.3;2.8;;;;;;;10.2;100;955.8754;;;;
2019/10/05 10:15:39;;;;;;;3.7;3.4;;;;;;;10.25;100;955.9976;;;;
2019/10/05 10:18:04;;;;;;;4.1;3.2;;;;;;;10.17;100;956.0121;;;;
2019/10/05 10:20:29;;;;;;;3.5;3.2;;;;;;;10.3;100;956.041;;;;
2019/10/05 10:22:54;;;;;;;4.5;4.1;;;;;;;10.49;100;955.9955;;;;
2019/10/05 10:25:19;;;;;;;3.9;3.6;;;;;;;10.57;100;956.0985;;;;
2019/10/05 10:27:44;;;;;;;3.4;3.1;;;;;;;10.51;100;956.1255;;;;
2019/10/05 10:30:09;;;;;;;5.7;5.1;;;;;;;10.61;100;956.1266;;;;
2019/10/05 10:32:34;;;;;;;5.4;4.9;;;;;;;10.45;100;956.1791;;;;
2019/10/05 10:35:01;;;;;;;5.2;4.7;;;;;;;10.39;100;956.3038;;;;
2019/10/05 10:37:24;;;;;;;4.7;4.3;;;;;;;10.29;100;956.2813;;;;
2019/10/05 10:39:49;;;;;;;4.6;4.2;;;;;;;10.29;100;956.3901;;;;
2019/10/05 10:42:14;;;;;;;4.8;4.3;;;;;;;10.26;100;956.4494;;;;
2019/10/05 10:44:40;;;;;;;4.8;4.3;;;;;;;10.2;100;956.4408;;;;
2019/10/05 10:47:05;;;;;;;4.3;3.9;;;;;;;10.27;100;956.4681;;;;
2019/10/05 10:49:30;;;;;;;4.2;3.8;;;;;;;10.41;100;956.5583;;;;
2019/10/05 10:51:56;;;;;;;3.7;3.2;;;;;;;10.25;100;956.5668;;;;
2019/10/05 10:54:20;;;;;;;3;2.8;;;;;;;10.28;99.20996;956.6742;;;;
2019/10/05 10:56:45;;;;;;;3;2.7;;;;;;;10.19;99.7666;956.7296;;;;
2019/10/05 10:59:11;;;;;;;2.6;2.4;;;;;;;10.15;98.81543;956.7413;;;;
2019/10/05 11:01:35;;;;;;;2.7;2.2;;;;;;;9.97;97.94434;956.7855;;;;
2019/10/05 11:04:01;;;;;;;2.4;1.9;;;;;;;9.99;97.35059;956.7811;;;;
2019/10/05 11:06:26;;;;;;;2.4;1.8;;;;;;;9.98;97.52148;956.8239;;;;
2019/10/05 11:08:51;;;;;;;2.2;1.9;;;;;;;9.98;96.55762;956.8784;;;;
2019/10/05 11:11:16;;;;;;;2;1.6;;;;;;;10.01;96.61035;956.8635;;;;
2019/10/05 11:13:41;;;;;;;1.8;1.5;;;;;;;10.19;96.77637;956.9372;;;;
2019/10/05 11:16:09;;;;;;;1.4;1.3;;;;;;;10.04;95.39746;956.9355;;;;
2019/10/05 11:18:31;;;;;;;1.3;1.2;;;;;;;10.07;95.72559;956.9043;;;;
2019/10/05 11:20:57;;;;;;;1.6;1.3;;;;;;;10.02;96.63281;956.9269;;;;
2019/10/05 11:23:22;;;;;;;1.8;1.5;;;;;;;10.09;96.92676;956.9633;;;;
2019/10/05 11:25:47;;;;;;;1.3;1.2;;;;;;;10.09;94.17773;957.0292;;;;
2019/10/05 11:28:12;;;;;;;1.4;1.3;;;;;;;10.06;95.27539;957.0549;;;;
2019/10/05 11:30:38;;;;;;;1.5;0.9;;;;;;;9.96;92.96582;956.9833;;;;
2019/10/05 11:33:03;;;;;;;2;1.2;;;;;;;10.07;93.09277;957.1208;;;;
2019/10/05 11:35:28;;;;;;;1.5;1;;;;;;;10.1;92.69824;957.0245;;;;
2019/10/05 11:37:54;;;;;;;1.1;1;;;;;;;10.12;94.90918;957.0648;;;;
2019/10/05 11:40:20;;;;;;;1.4;1;;;;;;;10.12;92.87402;957.077;;;;
2019/10/05 11:42:45;;;;;;;0.9;0.9;;;;;;;10.01;90.96582;957.15;;;;
2019/10/05 11:45:10;;;;;;;1.2;1;;;;;;;10.12;94.33496;957.1429;;;;
2019/10/05 11:47:35;;;;;;;2.1;1.1;;;;;;;10.27;91.5498;957.1555;;;;
2019/10/05 11:50:00;;;;;;;1;0.8;;;;;;;10.4;90.65625;957.1656;;;;
2019/10/05 11:52:26;;;;;;;1.6;1.1;;;;;;;10.45;91.19434;957.2528;;;;
2019/10/05 11:54:51;;;;;;;1.6;1.1;;;;;;;10.53;92.67285;957.2612;;;;
2019/10/05 11:57:16;;;;;;;0.8;0.7;;;;;;;10.47;89.63379;957.305;;;;
2019/10/05 11:59:41;;;;;;;1.6;0.9;;;;;;;10.61;89.37793;957.3269;;;;
2019/10/05 12:02:07;;;;;;;1;0.9;;;;;;;10.51;89.16016;957.3401;;;;
2019/10/05 12:04:32;;;;;;;1.5;1.2;;;;;;;10.58;92.17871;957.3231;;;;
2019/10/05 12:06:57;;;;;;;1.4;0.8;;;;;;;10.66;89.31934;957.3286;;;;
2019/10/05 12:09:22;;;;;;;1;0.9;;;;;;;10.74;92.25879;957.3747;;;;
2019/10/05 12:11:47;;;;;;;1.5;0.8;;;;;;;10.71;89.83496;957.3538;;;;
2019/10/05 12:14:12;;;;;;;0.6;0.5;;;;;;;10.53;83.55859;957.3834;;;;
2019/10/05 12:16:37;;;;;;;1.3;0.7;;;;;;;10.61;88.30664;957.3839;;;;
2019/10/05 12:19:03;;;;;;;0.8;0.5;;;;;;;10.62;82.65527;957.4331;;;;
2019/10/05 12:21:28;;;;;;;0.6;0.6;;;;;;;10.68;85.22363;957.3962;;;;
2019/10/05 12:23:53;;;;;;;0.7;0.5;;;;;;;10.84;82.69824;957.4135;;;;
2019/10/05 12:26:18;;;;;;;1;0.5;;;;;;;10.79;79.7168;957.4297;;;;
2019/10/05 12:28:43;;;;;;;1.2;0.4;;;;;;;10.9;81.20117;957.4241;;;;
2019/10/05 12:31:09;;;;;;;0.6;0.3;;;;;;;10.79;77.17383;957.5219;;;;
2019/10/05 12:33:34;;;;;;;0.7;0.5;;;;;;;10.79;77.75;957.5178;;;;
2019/10/05 12:36:00;;;;;;;1.5;0.4;;;;;;;10.79;82.77051;957.5432;;;;
2019/10/05 12:38:25;;;;;;;0.7;0.4;;;;;;;10.79;79.48828;957.5945;;;;
2019/10/05 12:40:51;;;;;;;0.4;0.4;;;;;;;10.86;81.68848;957.6721;;;;
2019/10/05 12:43:16;;;;;;;1.1;0.5;;;;;;;10.83;82.48926;957.7036;;;;
2019/10/05 12:45:41;;;;;;;1.1;0.5;;;;;;;10.98;78.44043;957.7115;;;;
2019/10/05 12:48:06;;;;;;;1.6;0.5;;;;;;;10.99;78.19824;957.7556;;;;
2019/10/05 12:50:31;;;;;;;1.2;0.5;;;;;;;11.01;78.03027;957.7378;;;;
2019/10/05 12:52:57;;;;;;;0.7;0.4;;;;;;;11.12;78.45313;957.7533;;;;
2019/10/05 12:55:22;;;;;;;0.7;0.5;;;;;;;11.11;81.18262;957.7573;;;;
2019/10/05 12:57:47;;;;;;;0.5;0.5;;;;;;;11.19;80.86328;957.7969;;;;
2019/10/05 13:00:13;;;;;;;1.3;0.5;;;;;;;11.21;78.45898;957.8475;;;;
2019/10/05 13:02:38;;;;;;;1.1;0.5;;;;;;;11.23;81.34473;957.8731;;;;
2019/10/05 13:05:03;;;;;;;1;0.6;;;;;;;10.99;82.83105;957.9236;;;;
2019/10/05 13:07:28;;;;;;;1.8;0.6;;;;;;;10.99;78.39551;957.9333;;;;
2019/10/05 13:09:53;;;;;;;1.3;1;;;;;;;11.02;80.7627;957.9583;;;;
2019/10/05 13:12:18;;;;;;;1.7;1;;;;;;;11.01;80.86426;957.9697;;;;
2019/10/05 13:14:43;;;;;;;1.2;0.9;;;;;;;10.92;80.52734;957.9691;;;;
2019/10/05 13:17:08;;;;;;;2.9;0.8;;;;;;;11;82.59277;957.9995;;;;
2019/10/05 13:19:34;;;;;;;0.5;0.5;;;;;;;11.07;79.52832;958.0545;;;;
2019/10/05 13:21:59;;;;;;;1.1;0.6;;;;;;;11.04;78.33594;958.0891;;;;
2019/10/05 13:24:24;;;;;;;1.4;0.6;;;;;;;11.09;79.68066;958.132;;;;
2019/10/05 13:26:49;;;;;;;0.6;0.5;;;;;;;11.09;78.67871;958.1948;;;;
2019/10/05 13:29:14;;;;;;;1.4;0.6;;;;;;;11.2;76.37109;958.239;;;;
2019/10/05 13:31:40;;;;;;;1.3;0.7;;;;;;;11.18;76.4834;958.2467;;;;
2019/10/05 13:34:04;;;;;;;0.5;0.5;;;;;;;11.17;77.71387;958.3225;;;;
2019/10/05 13:36:30;;;;;;;1.4;0.5;;;;;;;11.16;78.26563;958.3992;;;;
2019/10/05 13:38:55;;;;;;;1.4;0.8;;;;;;;11.06;75.07715;958.4489;;;;
2019/10/05 13:41:20;;;;;;;0.4;0.4;;;;;;;10.91;74.52246;958.506;;;;
2019/10/05 13:43:45;;;;;;;1.2;0.6;;;;;;;10.99;76.79297;958.5416;;;;
2019/10/05 13:46:11;;;;;;;1;0.6;;;;;;;11.06;77.7041;958.55;;;;
2019/10/05 13:48:36;;;;;;;0.6;0.5;;;;;;;11.18;75.1123;958.5689;;;;
2019/10/05 13:51:01;;;;;;;0.8;0.5;;;;;;;11.18;77.40527;958.5925;;;;
2019/10/05 13:53:26;;;;;;;0.6;0.6;;;;;;;11.34;75.57617;958.4686;;;;
2019/10/05 13:55:51;;;;;;;0.6;0.6;;;;;;;11.3;78.63574;958.4597;;;;
2019/10/05 13:58:17;;;;;;;3;1.2;;;;;;;11.38;78.5459;958.5466;;;;
2019/10/05 14:00:42;;;;;;;1.7;1.4;;;;;;;11.28;78.8623;958.5257;;;;
2019/10/05 14:03:07;;;;;;;4.8;1.9;;;;;;;11.34;79.00098;958.5225;;;;
2019/10/05 14:05:33;;;;;;;2.1;1.3;;;;;;;11.45;77.9248;958.4822;;;;
2019/10/05 14:07:58;;;;;;;1.7;1.2;;;;;;;11.31;77.83203;958.527;;;;
2019/10/05 14:10:23;;;;;;;1.8;1.4;;;;;;;11.17;78.31445;958.5363;;;;
2019/10/05 14:12:48;;;;;;;1.8;1.2;;;;;;;11.28;78.02148;958.4882;;;;
2019/10/05 14:15:13;;;;;;;2.5;1.5;;;;;;;11.35;78.7832;958.5471;;;;
2019/10/05 14:17:38;;;;;;;1.2;1.1;;;;;;;11.32;77.35938;958.7008;;;;
2019/10/05 14:20:03;;;;;;;2.3;1.1;;;;;;;11.34;79.26563;958.7955;;;;
2019/10/05 14:22:28;;;;;;;1.8;1.1;;;;;;;11.25;79.73535;958.8761;;;;
2019/10/05 14:24:53;;;;;;;2.5;0.9;;;;;;;11.29;77.90918;958.9304;;;;
2019/10/05 14:27:19;;;;;;;0.8;0.8;;;;;;;11.35;78.20703;959.0389;;;;
2019/10/05 14:29:44;;;;;;;1.4;0.9;;;;;;;11.22;78.3916;958.9988;;;;
2019/10/05 14:32:09;;;;;;;0.8;0.8;;;;;;;11.16;76.83594;959.0834;;;;
2019/10/05 14:34:34;;;;;;;1.1;1;;;;;;;11.13;76.90039;959.0903;;;;
2019/10/05 14:36:59;;;;;;;1.1;1;;;;;;;11.04;77.81738;959.1566;;;;
2019/10/05 14:39:24;;;;;;;1.3;0.9;;;;;;;11.11;78.7168;959.1983;;;;
2019/10/05 14:41:49;;;;;;;2.1;1.9;;;;;;;11.03;74.98242;959.2475;;;;
2019/10/05 14:44:14;;;;;;;2.6;1.8;;;;;;;11.01;74.72363;959.2267;;;;
2019/10/05 14:46:40;;;;;;;1.2;0.8;;;;;;;11.11;74.45313;959.2986;;;;
2019/10/05 14:49:09;;;;;;;3.5;1.2;;;;;;;11.09;77.83789;959.2786;;;;
2019/10/05 14:51:30;;;;;;;1.3;0.9;;;;;;;11.09;76.48926;959.348;;;;
2019/10/05 14:53:55;;;;;;;1.2;1;;;;;;;11.08;75.23145;959.387;;;;
2019/10/05 14:56:20;;;;;;;1.9;1;;;;;;;10.96;75.56738;959.3842;;;;
2019/10/05 14:58:45;;;;;;;1.3;1.1;;;;;;;10.74;76.09375;959.3658;;;;
2019/10/05 15:01:11;;;;;;;1.7;1.1;;;;;;;10.93;77.64844;959.4636;;;;
2019/10/05 15:03:36;;;;;;;1.8;1;;;;;;;11.04;77.04395;959.4816;;;;
2019/10/05 15:06:01;;;;;;;1.7;1;;;;;;;10.84;76.43457;959.4734;;;;
2019/10/05 15:08:26;;;;;;;1;0.9;;;;;;;10.87;74.6875;959.4911;;;;
2019/10/05 15:10:51;;;;;;;1.2;0.9;;;;;;;10.92;75.06543;959.5419;;;;
2019/10/05 15:13:17;;;;;;;1.4;0.8;;;;;;;10.95;74.51855;959.5342;;;;
2019/10/05 15:15:44;;;;;;;0.7;0.6;;;;;;;11.01;74.34375;959.5328;;;;
2019/10/05 15:18:07;;;;;;;1;0.6;;;;;;;10.89;74.8418;959.5095;;;;
2019/10/05 15:20:32;;;;;;;0.8;0.7;;;;;;;10.94;75.81836;959.5575;;;;
2019/10/05 15:22:57;;;;;;;0.8;0.8;;;;;;;10.98;72.97949;959.4604;;;;
2019/10/05 15:25:23;;;;;;;1;0.7;;;;;;;10.94;71.00195;959.4612;;;;
2019/10/05 15:27:48;;;;;;;0.6;0.5;;;;;;;10.99;72.80664;959.5151;;;;
2019/10/05 15:30:13;;;;;;;0.6;0.6;;;;;;;10.7;71.71094;959.584;;;;
2019/10/05 15:32:38;;;;;;;1.5;0.8;;;;;;;10.64;72.80762;959.662;;;;
2019/10/05 15:35:03;;;;;;;1.4;0.6;;;;;;;10.68;72.78027;959.6941;;;;
2019/10/05 15:37:29;;;;;;;0.7;0.7;;;;;;;10.84;75.2373;959.7939;;;;
2019/10/05 15:39:54;;;;;;;0.7;0.7;;;;;;;10.82;74.69141;959.8472;;;;
2019/10/05 15:42:19;;;;;;;1.3;0.8;;;;;;;10.82;76.17676;959.866;;;;
2019/10/05 15:44:44;;;;;;;1.6;0.9;;;;;;;10.94;74.30859;959.8917;;;;
2019/10/05 15:47:09;;;;;;;0.8;0.8;;;;;;;10.91;76.59375;959.8961;;;;
2019/10/05 15:49:34;;;;;;;2.6;1.2;;;;;;;10.83;75.09473;959.9931;;;;
2019/10/05 15:51:59;;;;;;;1.1;1;;;;;;;10.73;74.53809;960.0313;;;;
2019/10/05 15:54:25;;;;;;;2.9;1.1;;;;;;;10.69;74.08105;960.1024;;;;
2019/10/05 15:56:50;;;;;;;1.1;1;;;;;;;10.82;72.92969;960.0778;;;;